createdAt,value
2017-10-05T00:00:16.312Z,0
2017-10-05T00:05:21.705Z,0
2017-10-05T00:10:27.094Z,0
2017-10-05T00:15:32.485Z,0
2017-10-05T00:20:37.538Z,0
2017-10-05T00:25:42.929Z,0
2017-10-05T00:30:47.648Z,0
2017-10-05T00:35:53.377Z,0
2017-10-05T00:40:58.430Z,0
2017-10-05T00:46:03.149Z,0
2017-10-05T00:51:07.871Z,0
2017-10-05T00:56:13.261Z,0
2017-10-05T01:01:18.317Z,0
2017-10-05T01:06:23.375Z,0
2017-10-05T01:11:28.098Z,0
2017-10-05T01:16:33.157Z,0
2017-10-05T01:21:38.213Z,0
2017-10-05T01:26:43.278Z,0
2017-10-05T01:31:48.922Z,0
2017-10-05T01:36:54.649Z,0
2017-10-05T01:42:00.038Z,0
2017-10-05T01:47:05.097Z,0
2017-10-05T01:52:10.487Z,0
2017-10-05T01:57:16.217Z,0
2017-10-05T02:02:22.278Z,0
2017-10-05T02:07:27.003Z,0
2017-10-05T02:12:32.399Z,0
2017-10-05T02:17:38.121Z,0
2017-10-05T02:22:43.179Z,0
2017-10-05T02:27:47.902Z,0
2017-10-05T02:32:52.622Z,0
2017-10-05T02:37:58.018Z,0
2017-10-05T02:43:03.412Z,0
2017-10-05T02:48:07.800Z,0
2017-10-05T02:53:12.865Z,0
2017-10-05T02:58:17.922Z,0
2017-10-05T03:03:22.981Z,0
2017-10-05T03:08:28.039Z,0
2017-10-05T03:13:33.431Z,0
2017-10-05T03:18:37.821Z,0
2017-10-05T03:23:42.208Z,0
2017-10-05T03:28:47.314Z,0
2017-10-05T03:33:52.038Z,0
2017-10-05T03:38:57.094Z,0
2017-10-05T03:44:03.161Z,0
2017-10-05T03:49:08.218Z,0
2017-10-05T03:54:13.947Z,0
2017-10-05T03:59:18.672Z,0
2017-10-05T04:04:24.402Z,0
2017-10-05T04:09:29.998Z,0
2017-10-05T04:14:35.074Z,0
2017-10-05T04:19:41.135Z,0
2017-10-05T04:24:45.578Z,0
2017-10-05T04:29:51.318Z,0
2017-10-05T04:34:57.050Z,0
2017-10-05T04:40:02.442Z,0
2017-10-05T04:45:07.502Z,0
2017-10-05T04:50:12.894Z,0
2017-10-05T04:55:18.671Z,0
2017-10-05T05:00:23.396Z,0
2017-10-05T05:05:28.481Z,0
2017-10-05T05:10:33.207Z,4
2017-10-05T05:15:38.268Z,0
2017-10-05T05:20:43.323Z,1
2017-10-05T05:25:48.719Z,2
2017-10-05T05:30:54.457Z,4
2017-10-05T05:35:59.861Z,5
2017-10-05T05:41:04.921Z,5
2017-10-05T05:46:09.983Z,8
2017-10-05T05:51:15.713Z,10
2017-10-05T05:56:20.434Z,12
2017-10-05T06:01:25.835Z,16
2017-10-05T06:06:31.564Z,24
2017-10-05T06:11:36.625Z,31
2017-10-05T06:16:42.027Z,42
2017-10-05T06:21:47.091Z,56
2017-10-05T06:26:52.820Z,52
2017-10-05T06:31:58.214Z,55
2017-10-05T06:37:03.942Z,72
2017-10-05T06:42:09.334Z,76
2017-10-05T06:47:14.061Z,78
2017-10-05T06:52:19.456Z,106
2017-10-05T06:57:24.852Z,109
2017-10-05T07:02:29.581Z,99
2017-10-05T07:07:34.309Z,120
2017-10-05T07:12:39.371Z,130
2017-10-05T07:17:44.766Z,143
2017-10-05T07:22:50.161Z,182
2017-10-05T07:27:55.554Z,210
2017-10-05T07:33:00.617Z,196
2017-10-05T07:38:05.683Z,203
2017-10-05T07:43:11.079Z,211
2017-10-05T07:48:16.474Z,202
2017-10-05T07:53:21.200Z,166
2017-10-05T07:58:26.933Z,176
2017-10-05T08:03:31.992Z,173
2017-10-05T08:08:37.385Z,173
2017-10-05T08:13:42.445Z,193
2017-10-05T08:18:47.506Z,267
2017-10-05T08:23:52.899Z,192
2017-10-05T08:28:58.965Z,208
2017-10-05T08:34:04.038Z,282
2017-10-05T08:39:09.756Z,300
2017-10-05T08:44:15.151Z,432
2017-10-05T08:49:20.544Z,354
2017-10-05T08:54:26.273Z,327
2017-10-05T08:59:31.327Z,381
2017-10-05T09:04:36.721Z,466
2017-10-05T09:09:42.114Z,413
2017-10-05T09:14:47.508Z,363
2017-10-05T09:19:52.904Z,381
2017-10-05T09:24:58.295Z,543
2017-10-05T09:30:04.031Z,442
2017-10-05T09:35:09.433Z,556
2017-10-05T09:40:14.489Z,430
2017-10-05T09:45:19.881Z,459
2017-10-05T09:50:24.946Z,365
2017-10-05T09:55:30.342Z,463
2017-10-05T10:00:35.750Z,417
2017-10-05T10:05:41.149Z,905
2017-10-05T10:10:46.545Z,515
2017-10-05T10:15:52.278Z,657
2017-10-05T10:20:58.012Z,503
2017-10-05T10:26:03.741Z,742
2017-10-05T10:31:08.466Z,859
2017-10-05T10:36:13.860Z,624
2017-10-05T10:41:19.260Z,486
2017-10-05T10:46:24.318Z,694
2017-10-05T10:51:29.042Z,946
2017-10-05T10:56:34.106Z,590
2017-10-05T11:01:39.498Z,372
2017-10-05T11:06:44.230Z,1568
2017-10-05T11:11:50.315Z,1039
2017-10-05T11:16:55.698Z,671
2017-10-05T11:22:00.754Z,652
2017-10-05T11:27:06.483Z,338
2017-10-05T11:32:12.211Z,677
2017-10-05T11:37:17.604Z,973
2017-10-05T11:42:22.333Z,1747
2017-10-05T11:47:26.725Z,356
2017-10-05T11:52:32.119Z,474
2017-10-05T11:58:21.613Z,1125
2017-10-05T12:03:26.345Z,1629
2017-10-05T12:08:31.073Z,1472
2017-10-05T12:13:36.471Z,691
2017-10-05T12:18:41.531Z,1220
2017-10-05T12:23:46.596Z,1531
2017-10-05T12:28:51.666Z,1352
2017-10-05T12:33:57.061Z,1292
2017-10-05T12:39:01.787Z,1367
2017-10-05T12:44:06.850Z,1626
2017-10-05T12:49:11.914Z,1407
2017-10-05T12:54:16.641Z,1648
2017-10-05T12:59:21.705Z,2134
2017-10-05T13:04:26.769Z,1289
2017-10-05T13:09:32.654Z,1585
2017-10-05T13:14:37.719Z,1117
2017-10-05T13:19:43.451Z,1750
2017-10-05T13:24:48.848Z,1718
2017-10-05T13:29:54.581Z,1296
2017-10-05T13:34:59.643Z,1272
2017-10-05T13:40:05.048Z,1468
2017-10-05T13:45:11.114Z,1274
2017-10-05T13:50:16.514Z,1221
2017-10-05T13:55:21.239Z,774
2017-10-05T14:00:26.972Z,1122
2017-10-05T14:05:32.365Z,448
2017-10-05T14:10:37.761Z,643
2017-10-05T14:15:42.490Z,756
2017-10-05T14:20:46.883Z,399
2017-10-05T14:25:51.944Z,609
2017-10-05T14:30:56.670Z,452
2017-10-05T14:36:02.069Z,280
2017-10-05T14:41:06.793Z,361
2017-10-05T14:46:11.518Z,475
2017-10-05T14:51:16.592Z,463
2017-10-05T14:56:21.324Z,472
2017-10-05T15:01:26.050Z,524
2017-10-05T15:06:30.786Z,395
2017-10-05T15:11:35.877Z,353
2017-10-05T15:16:40.940Z,324
2017-10-05T15:21:45.667Z,737
2017-10-05T15:26:50.782Z,263
2017-10-05T15:31:56.203Z,309
2017-10-05T15:37:01.262Z,243
2017-10-05T15:42:05.989Z,145
2017-10-05T15:47:11.054Z,108
2017-10-05T15:52:16.114Z,162
2017-10-05T15:57:21.174Z,99
2017-10-05T16:02:26.240Z,115
2017-10-05T16:07:31.309Z,72
2017-10-05T16:12:36.735Z,106
2017-10-05T16:17:42.466Z,98
2017-10-05T16:22:47.691Z,44
2017-10-05T16:27:53.500Z,54
2017-10-05T16:32:58.977Z,43
2017-10-05T16:38:03.375Z,39
2017-10-05T16:43:08.798Z,27
2017-10-05T16:48:14.524Z,16
2017-10-05T16:53:19.614Z,9
2017-10-05T16:58:24.690Z,5
2017-10-05T17:03:29.118Z,3
2017-10-05T17:08:34.524Z,1
2017-10-05T17:13:39.943Z,1
2017-10-05T17:18:45.045Z,0
2017-10-05T17:23:49.786Z,0
2017-10-05T17:28:54.202Z,0
2017-10-05T17:33:58.948Z,0
2017-10-05T17:39:04.377Z,0
2017-10-05T17:44:10.454Z,0
2017-10-05T17:49:16.212Z,0
2017-10-05T17:54:21.634Z,0
2017-10-05T17:59:27.055Z,0
2017-10-05T18:04:31.459Z,0
2017-10-05T18:09:36.245Z,0
2017-10-05T18:14:41.996Z,0
2017-10-05T18:19:47.463Z,0
2017-10-05T18:24:52.004Z,0
2017-10-05T18:29:57.737Z,0
2017-10-05T18:35:03.137Z,0
2017-10-05T18:40:08.541Z,0
2017-10-05T18:45:14.283Z,0
2017-10-05T18:50:19.689Z,0
2017-10-05T18:55:24.753Z,0
2017-10-05T19:00:29.834Z,0
2017-10-05T19:05:34.913Z,0
2017-10-05T19:10:39.666Z,0
2017-10-05T19:15:44.747Z,0
2017-10-05T19:20:50.154Z,0
2017-10-05T19:25:55.235Z,0
2017-10-05T19:31:00.974Z,0
2017-10-05T19:36:06.047Z,0
2017-10-05T19:41:11.453Z,0
2017-10-05T19:46:16.197Z,0
2017-10-05T19:51:21.318Z,0
2017-10-05T19:56:26.058Z,0
2017-10-05T20:01:30.794Z,0
2017-10-05T20:06:35.876Z,0
2017-10-05T20:11:40.946Z,0
2017-10-05T20:16:46.019Z,0
2017-10-05T20:21:51.089Z,0
2017-10-05T20:26:56.494Z,0
2017-10-05T20:32:01.901Z,0
2017-10-05T20:37:06.640Z,0
2017-10-05T20:42:12.050Z,0
2017-10-05T20:47:16.784Z,0
2017-10-05T20:52:22.194Z,0
2017-10-05T20:57:27.269Z,0
2017-10-05T21:02:32.335Z,0
2017-10-05T21:07:37.405Z,0
2017-10-05T21:12:42.814Z,0
2017-10-05T21:17:48.234Z,0
2017-10-05T21:22:52.983Z,0
2017-10-05T21:27:58.052Z,0
2017-10-05T21:33:03.124Z,0
2017-10-05T21:38:07.859Z,0
2017-10-05T21:43:13.264Z,0
2017-10-05T21:48:18.339Z,0
2017-10-05T21:53:23.068Z,0
2017-10-05T21:58:28.467Z,0
2017-10-05T22:03:33.533Z,0
2017-10-05T22:08:38.602Z,0
2017-10-05T22:13:43.673Z,0
2017-10-05T22:18:49.407Z,0
2017-10-05T22:23:54.809Z,0
2017-10-05T22:28:59.207Z,0
2017-10-05T22:34:03.275Z,0
2017-10-05T22:39:08.340Z,0
2017-10-05T22:44:13.070Z,0
2017-10-05T22:49:18.468Z,0
2017-10-05T22:54:23.535Z,0
2017-10-05T22:59:27.926Z,0
2017-10-05T23:04:33.328Z,0
2017-10-05T23:09:38.392Z,0
2017-10-05T23:14:43.790Z,0
2017-10-05T23:19:49.190Z,0
2017-10-05T23:24:54.595Z,0
2017-10-05T23:30:00.330Z,0
2017-10-05T23:35:05.066Z,0
2017-10-05T23:40:10.467Z,0
2017-10-05T23:45:15.532Z,0
2017-10-05T23:50:20.599Z,0
2017-10-05T23:55:25.669Z,0
